Latest Weather Observations for Lake Macquarie - Cooranbong

IDN60901

Issued at 5:05 pm EST Wednesday 16 April 2014 (issued every 10 minutes, with the page automatically refreshed every 10 minutes)

About weather observations | Map of Sydney area stations | Latest observations for Sydney area | Other Formats
Station Details ID: 061412 Name: LAKE MACQUARIE AWS Lat: -33.09 Lon: 151.46 Height: 6.0 m
Data from the previous 72 hours. | See also: Recent months at Lake Macquarie - Cooranbong
Date/Time
EST
Tmp

°C
App
Tmp
°C
Dew
Point
°C
Rel
Hum
%
Delta-T

°C
Wind Press
QNH
hPa
Press
MSL
hPa
Rain
since
9 am
mm
Dir
 
Spd
km/h
Gust
km/h
Spd
kts
Gust
kts
16/05:00pm 19.8 20.6 13.7 68 3.5 SSW 2 4 1 2 1017.4 1017.4 0.0
16/04:30pm 20.6 21.0 13.8 65 3.9 SW 4 7 2 4 1017.4 - 0.0
16/04:00pm 20.2 19.9 12.7 62 4.2 SSW 6 15 3 8 1017.3 1017.3 0.0
16/03:30pm 20.8 20.6 13.7 64 4.1 S 7 13 4 7 1017.3 - 0.0
16/03:00pm 21.3 21.3 13.5 61 4.5 S 6 11 3 6 1017.2 1017.2 0.0
16/02:30pm 21.1 20.8 12.8 59 4.7 S 6 13 3 7 1017.2 - 0.0
16/02:00pm 21.9 21.6 12.7 56 5.2 SW 6 11 3 6 1017.1 1017.1 0.0
16/01:30pm 22.8 22.6 13.6 56 5.3 SSE 7 15 4 8 1017.3 - 0.0
16/01:00pm 22.0 21.8 13.6 59 4.8 S 7 13 4 7 1017.6 1017.6 0.0
16/12:30pm 21.9 21.5 14.0 61 4.6 SSW 9 19 5 10 1017.9 - 0.0
16/12:00pm 21.0 21.2 14.2 65 3.9 SW 6 15 3 8 1018.6 1018.6 0.0
16/11:30am 20.9 20.9 13.6 63 4.2 SSW 6 15 3 8 1019.0 - 0.0
16/11:00am 21.6 21.3 14.3 63 4.3 SSW 9 19 5 10 1019.0 1019.0 0.0
16/10:30am 20.7 20.1 13.4 63 4.2 SW 9 22 5 12 1019.2 - 0.0
16/10:00am 20.0 19.3 13.2 65 3.9 WSW 9 19 5 10 1019.3 1019.3 0.0
16/09:30am 19.3 17.8 13.0 67 3.6 WSW 13 20 7 11 1019.4 - 0.0
16/09:00am 18.4 18.0 13.1 71 3.0 WSW 7 17 4 9 1019.5 1019.5 5.8
16/08:30am 18.3 17.5 13.0 71 3.0 WSW 9 17 5 9 1019.3 - 5.8
16/08:00am 17.1 16.1 12.4 74 2.6 WSW 9 17 5 9 1019.3 1019.3 5.8
16/07:30am 16.5 16.2 12.7 78 2.1 WSW 6 11 3 6 1019.1 - 5.8
16/07:00am 15.9 15.5 12.5 80 1.9 W 6 9 3 5 1018.9 1018.9 5.8
16/06:30am 15.5 15.9 12.6 83 1.6 SW 2 6 1 3 1018.7 - 5.8
16/06:00am 15.4 15.5 12.7 84 1.5 WSW 4 6 2 3 1018.3 1018.3 5.8
16/05:30am 15.6 16.6 13.1 85 1.4 WSW 0 4 0 2 1018.3 - 5.8
16/05:00am 15.7 15.6 13.2 85 1.4 WSW 6 9 3 5 1018.2 1018.2 5.8
16/04:30am 16.0 15.9 13.3 84 1.5 SW 6 11 3 6 1018.2 - 5.8
16/04:00am 16.2 16.2 13.5 84 1.5 WSW 6 11 3 6 1017.8 1017.8 5.8
16/03:30am 16.1 15.8 13.4 84 1.5 SW 7 13 4 7 1017.9 - 5.8
16/03:00am 16.0 15.8 13.7 86 1.3 WSW 7 17 4 9 1017.7 1017.7 5.8
16/02:30am 15.9 16.0 13.9 88 1.1 SW 6 13 3 7 1017.7 - 5.8
16/02:00am 16.0 16.3 14.4 90 0.9 SW 6 13 3 7 1018.0 1018.0 5.8
16/01:30am 16.1 16.4 14.6 91 0.9 W 6 11 3 6 1018.5 - 5.6
16/01:00am 16.0 16.8 14.7 92 0.7 W 4 7 2 4 1018.9 1018.9 5.4
16/12:30am 15.8 16.9 14.7 93 0.6 WSW 2 7 1 4 1019.2 - 5.2
16/12:00am 15.8 16.6 14.7 93 0.6 SW 4 9 2 5 1019.3 1019.3 4.6
 
Date/Time
EST
Tmp

°C
App
Tmp
°C
Dew
Point
°C
Rel
Hum
%
Delta-T

°C
Wind Press
QNH
hPa
Press
MSL
hPa
Rain
since
9 am
mm
Dir
 
Spd
km/h
Gust
km/h
Spd
kts
Gust
kts
15/11:30pm 16.0 17.1 14.7 92 0.7 WSW 2 6 1 3 1019.6 - 3.4
15/11:00pm 16.2 16.6 14.7 91 0.9 WSW 6 17 3 9 1019.7 1019.7 2.8
15/10:30pm 16.2 16.5 14.9 92 0.7 WSW 7 11 4 6 1019.8 - 2.2
15/10:00pm 16.2 17.3 14.6 90 0.9 SW 2 7 1 4 1020.0 1020.0 1.4
15/09:30pm 16.3 17.4 14.5 89 1.0 WSW 2 4 1 2 1020.0 - 1.0
15/09:00pm 16.8 16.4 14.1 84 1.5 SW 9 19 5 10 1019.9 1019.9 0.0
15/08:30pm 17.0 16.8 13.5 80 2.0 SW 7 19 4 10 1019.7 - 0.0
15/08:00pm 17.6 17.3 12.7 73 2.7 SW 6 13 3 7 1019.5 1019.5 0.0
15/07:30pm 17.4 17.6 13.1 76 2.4 SSW 4 17 2 9 1019.5 - 0.0
15/07:00pm 17.6 17.6 14.3 81 1.9 S 7 19 4 10 1019.4 1019.4 0.0
15/06:30pm 17.9 18.9 14.2 79 2.1 SSW 2 9 1 5 1019.1 - 0.0
15/06:00pm 18.1 18.3 14.2 78 2.2 SSW 6 15 3 8 1018.8 1018.8 0.0
15/05:30pm 18.2 18.4 14.3 78 2.2 SSW 6 11 3 6 1018.7 - 0.0
15/05:00pm 18.6 18.7 13.9 74 2.7 SSW 6 11 3 6 1018.3 1018.3 0.0
15/04:30pm 19.1 19.7 15.2 78 2.3 S 6 13 3 7 1018.3 - 0.0
15/04:00pm 19.6 19.8 14.2 71 3.1 SSE 6 11 3 6 1018.4 1018.4 0.0
15/03:30pm 19.8 19.7 13.3 66 3.7 SE 6 15 3 8 1018.4 - 0.0
15/03:00pm 20.0 19.6 12.5 62 4.2 S 6 9 3 5 1018.4 1018.4 0.0
15/02:30pm 20.4 20.7 13.4 64 4.0 SW 4 7 2 4 1018.5 - 0.0
15/02:00pm 19.9 19.5 12.4 62 4.2 SW 6 9 3 5 1018.5 1018.5 0.0
15/01:30pm 19.9 20.1 12.9 64 4.0 SSW 4 7 2 4 1018.4 - 0.0
15/01:00pm 19.9 19.3 12.4 62 4.2 S 7 17 4 9 1018.7 1018.7 0.0
15/12:30pm 20.3 20.9 14.2 68 3.5 SSW 4 7 2 4 1019.0 - 0.0
15/12:00pm 18.4 19.6 13.9 75 2.6 CALM 0 2 0 1 1019.6 1019.6 0.0
15/11:30am 20.0 20.2 14.1 69 3.4 S 6 11 3 6 1020.1 - 0.0
15/11:00am 19.6 19.7 13.8 69 3.3 S 6 11 3 6 1020.4 1020.4 0.0
15/10:30am 18.9 19.1 14.2 74 2.7 SW 6 9 3 5 1020.6 - 0.0
15/10:00am 18.4 19.2 14.7 79 2.1 SW 4 9 2 5 1020.6 1020.6 0.0
15/09:30am 17.1 17.7 15.4 90 1.0 NW 6 9 3 5 1020.8 - 0.0
15/09:00am 16.0 16.7 14.5 91 0.9 WSW 4 7 2 4 1021.0 1021.0 6.4
15/08:30am 16.1 17.0 13.9 87 1.2 SSE 2 6 1 3 1020.9 - 5.6
15/08:00am 15.7 16.5 13.7 88 1.1 WSW 2 7 1 4 1020.5 1020.5 5.6
15/07:30am 15.0 16.0 14.2 95 0.5 WSW 2 7 1 4 1020.0 - 5.6
15/07:00am 13.3 14.1 12.7 96 0.3 CALM 0 0 0 0 1020.0 1020.0 5.6
15/06:30am 12.4 12.9 11.6 95 0.4 CALM 0 0 0 0 1019.8 - 5.6
15/06:00am 12.9 13.5 12.0 94 0.5 CALM 0 0 0 0 1019.6 1019.6 5.6
15/05:30am 13.3 14.1 12.4 94 0.5 CALM 0 0 0 0 1019.5 - 5.6
15/05:00am 14.1 15.1 13.3 95 0.4 CALM 0 0 0 0 1019.4 1019.4 5.6
15/04:30am 14.7 15.6 14.1 96 0.3 NNW 2 4 1 2 1019.2 - 5.6
15/04:00am 14.3 15.4 13.5 95 0.4 CALM 0 4 0 2 1019.5 1019.5 5.6
15/03:30am 14.1 14.7 13.1 94 0.6 NW 2 4 1 2 1019.6 - 5.6
15/03:00am 14.7 15.9 13.7 94 0.6 CALM 0 0 0 0 1019.5 1019.5 5.6
15/02:30am 14.9 16.1 13.9 94 0.6 CALM 0 0 0 0 1019.7 - 5.6
15/02:00am 15.1 16.0 14.1 94 0.6 NW 2 4 1 2 1020.0 1020.0 5.6
15/01:30am 15.2 15.8 14.2 94 0.6 NNW 4 4 2 2 1020.1 - 5.6
15/01:00am 15.5 16.9 14.4 93 0.6 CALM 0 2 0 1 1020.4 1020.4 5.6
15/12:30am 15.5 16.6 14.5 94 0.6 W 2 6 1 3 1020.5 - 5.2
15/12:00am 15.6 16.7 14.6 94 0.6 NW 2 7 1 4 1020.5 1020.5 5.2
 
Date/Time
EST
Tmp

°C
App
Tmp
°C
Dew
Point
°C
Rel
Hum
%
Delta-T

°C
Wind Press
QNH
hPa
Press
MSL
hPa
Rain
since
9 am
mm
Dir
 
Spd
km/h
Gust
km/h
Spd
kts
Gust
kts
14/11:30pm 15.6 16.3 14.6 94 0.6 NNW 4 7 2 4 1020.6 - 5.2
14/11:00pm 15.7 16.4 14.6 93 0.6 W 4 7 2 4 1020.9 1020.9 4.6
14/10:30pm 15.7 16.5 14.7 94 0.6 W 4 6 2 3 1021.0 - 4.6
14/10:00pm 15.7 15.9 14.6 93 0.6 WSW 7 11 4 6 1021.1 1021.1 3.4
14/09:30pm 15.8 16.4 14.2 90 0.9 WSW 4 7 2 4 1021.0 - 2.8
14/09:00pm 15.7 16.3 14.2 91 0.8 WSW 4 11 2 6 1020.9 1020.9 2.8
14/08:30pm 15.8 16.5 14.5 92 0.7 WSW 4 6 2 3 1020.9 - 2.8
14/08:00pm 16.1 17.7 15.0 93 0.6 CALM 0 6 0 3 1020.9 1020.9 2.8
14/07:30pm 16.1 17.7 15.0 93 0.6 CALM 0 0 0 0 1020.9 - 2.8
14/07:00pm 16.1 16.8 14.6 91 0.9 WSW 4 7 2 4 1020.5 1020.5 2.8
14/06:30pm 16.3 17.9 14.8 91 0.9 CALM 0 0 0 0 1020.2 - 2.0
14/06:00pm 16.5 17.4 15.0 91 0.9 WSW 4 6 2 3 1019.7 1019.7 2.0
14/05:30pm 16.7 17.5 14.7 88 1.1 SW 4 13 2 7 1019.4 - 2.0
14/05:00pm 17.2 19.0 15.5 90 1.0 CALM 0 0 0 0 1019.4 1019.4 1.8
14/04:30pm 16.9 18.6 15.2 90 1.0 CALM 0 0 0 0 1019.0 - 1.8
14/04:00pm 16.7 17.2 15.1 90 0.9 ESE 6 11 3 6 1019.0 1019.0 1.6
14/03:30pm 17.1 18.0 15.1 88 1.2 SE 4 11 2 6 1018.9 - 1.2
14/03:00pm 17.0 18.3 15.2 89 1.0 E 2 4 1 2 1018.9 1018.9 0.6
14/02:30pm 17.2 16.4 14.1 82 1.8 ESE 11 24 6 13 1018.8 - 0.2
14/02:00pm 18.6 20.4 15.5 82 1.8 CALM 0 4 0 2 1018.6 1018.6 0.0
14/01:30pm 17.4 18.2 14.9 85 1.4 SE 4 7 2 4 1018.9 - 0.0
14/01:00pm 19.7 19.3 12.9 65 3.8 SSE 7 15 4 8 1018.7 1018.7 0.0
14/12:30pm 19.9 19.7 12.9 64 4.0 SSW 6 11 3 6 1018.9 - 0.0
14/12:00pm 19.4 18.5 12.7 65 3.8 SSW 9 24 5 13 1019.4 1019.4 0.0
14/11:30am 18.4 18.3 13.3 72 2.9 S 6 13 3 7 1019.8 - 0.0
14/11:00am 19.6 18.6 12.4 63 4.0 SW 9 19 5 10 1019.8 1019.8 0.0
14/10:30am 19.5 18.4 12.0 62 4.2 S 9 17 5 9 1020.1 - 0.0
14/10:00am 19.4 19.0 12.4 64 3.9 SSW 6 13 3 7 1020.1 1020.1 0.0
14/09:30am 19.6 19.1 12.8 65 3.8 SSW 7 15 4 8 1020.0 - 0.0
14/09:00am 18.2 17.5 12.0 67 3.4 SW 7 13 4 7 1020.0 1020.0 0.0
14/08:30am 17.6 16.3 11.2 66 3.5 SW 9 17 5 9 1019.8 - 0.0
14/08:00am 17.6 16.7 11.2 66 3.5 WSW 7 22 4 12 1019.6 1019.6 0.0
14/07:30am 16.6 15.1 10.7 68 3.1 SW 9 20 5 11 1019.2 - 0.0
14/07:00am 15.7 14.8 10.7 72 2.6 SW 6 13 3 7 1018.9 1018.9 0.0
14/06:30am 15.5 14.5 10.3 71 2.7 SW 6 11 3 6 1018.8 - 0.0
14/06:00am 15.4 14.2 10.4 72 2.6 WSW 7 15 4 8 1018.6 1018.6 0.0
14/05:30am 15.7 14.6 10.7 72 2.7 WSW 7 17 4 9 1018.6 - 0.0
14/05:00am 15.6 14.5 10.8 73 2.5 WSW 7 11 4 6 1018.4 1018.4 0.0
14/04:30am 15.2 14.8 11.2 77 2.1 SW 4 7 2 4 1018.2 - 0.0
14/04:00am 15.0 15.0 11.2 78 2.0 WSW 2 6 1 3 1018.2 1018.2 0.0
14/03:30am 15.6 15.3 11.4 76 2.3 SW 4 6 2 3 1018.0 - 0.0
14/03:00am 16.6 16.8 12.0 74 2.5 W 2 7 1 4 1018.2 1018.2 0.0
14/02:30am 16.2 16.1 12.2 77 2.2 SW 4 9 2 5 1018.1 - 0.0
14/02:00am 14.5 14.6 12.7 89 1.0 SSW 4 7 2 4 1018.2 1018.2 0.0
14/01:30am 13.3 14.0 12.2 93 0.6 CALM 0 4 0 2 1018.5 - 0.0
14/01:00am 13.3 13.9 11.9 91 0.7 CALM 0 4 0 2 1018.5 1018.5 0.0
14/12:30am 14.0 14.8 12.7 92 0.7 CALM 0 0 0 0 1018.6 - 0.0
14/12:00am 14.1 14.9 12.7 91 0.8 CALM 0 0 0 0 1018.8 1018.8 0.0
 
Date/Time
EST
Tmp

°C
App
Tmp
°C
Dew
Point
°C
Rel
Hum
%
Delta-T

°C
Wind Press
QNH
hPa
Press
MSL
hPa
Rain
since
9 am
mm
Dir
 
Spd
km/h
Gust
km/h
Spd
kts
Gust
kts
13/11:30pm 14.9 16.0 13.4 91 0.8 CALM 0 0 0 0 1018.8 - 0.0
13/11:00pm 15.5 16.8 14.0 91 0.8 CALM 0 0 0 0 1019.0 1019.0 0.0
13/10:30pm 15.7 17.1 14.4 92 0.7 CALM 0 0 0 0 1019.1 - 0.0
13/10:00pm 15.8 17.2 14.5 92 0.7 CALM 0 0 0 0 1019.3 1019.3 0.0
13/09:30pm 15.9 17.3 14.3 90 0.9 CALM 0 0 0 0 1019.3 - 0.0
13/09:00pm 16.3 17.9 14.8 91 0.9 CALM 0 0 0 0 1019.2 1019.2 0.0
13/08:30pm 16.0 17.4 14.5 91 0.9 CALM 0 0 0 0 1019.0 - 0.0
13/08:00pm 16.1 17.5 14.3 89 1.0 CALM 0 0 0 0 1018.5 1018.5 0.0
13/07:30pm 16.5 18.0 14.7 89 1.0 CALM 0 0 0 0 1018.1 - 0.0
13/07:00pm 16.9 18.2 14.0 83 1.6 CALM 0 0 0 0 1017.8 1017.8 0.0
13/06:30pm 18.1 19.1 14.4 79 2.1 W 2 4 1 2 1017.6 - 0.0
13/06:00pm 18.7 19.7 14.4 76 2.5 S 2 6 1 3 1017.3 1017.3 0.0
13/05:30pm 18.9 19.4 14.0 73 2.8 SSW 4 11 2 6 1017.0 - 0.0

Latest Capital City Observations: Canberra | Sydney | Melbourne | Brisbane | Adelaide | Perth | Hobart | Darwin

Other Formats:

Comma delimited format used in spreadsheet applications
http://www.bom.gov.au/fwo/IDN60901/IDN60901.95767.axf

JavaScript Object Notation format (JSON) in row-major order
http://www.bom.gov.au/fwo/IDN60901/IDN60901.95767.json